Amsterdam, Missouri
Current Conditions -  °F | °C
As of 9:24 AM on Thursday 23 Oct 2014 (Local Time) from KOJC Reporting Station
Haze Haze  
Wind Chill: 58°   Ceiling: 12000
Heat Index: 58°   Visibility: 5mi
Dew Point: 58°   Wind: 9mph
Humidity: 100%   Direction: 220°SW
Pressure: 30.1"   Gusts: NA
Location:  38.35°N, 94.59°W
Report Text: KOJC 231424Z 22008KT 5SM BR SCT004 OVC120 14/14 A3010 RMK AO2 T01440144
Loading
Personal Weather Stations






























Interactive Weather Map New forecast layout! Learn more

10-Day Weather Forecast

Advertisements
Track Severe Weather on mobile